sensor_id;sensor_type;location;lat;lon;timestamp;P1;durP1;ratioP1;P2;durP2;ratioP2
52838;SDS011;39219;53.678;9.856;2023-11-19T00:01:13;16.17;;;8.80;;
52838;SDS011;39219;53.678;9.856;2023-11-19T00:03:41;15.45;;;8.18;;
52838;SDS011;39219;53.678;9.856;2023-11-19T00:06:07;14.90;;;7.72;;
52838;SDS011;39219;53.678;9.856;2023-11-19T00:08:37;15.80;;;7.72;;
52838;SDS011;39219;53.678;9.856;2023-11-19T00:11:04;13.30;;;7.40;;
52838;SDS011;39219;53.678;9.856;2023-11-19T00:13:30;14.98;;;7.47;;
52838;SDS011;39219;53.678;9.856;2023-11-19T00:15:56;15.13;;;7.03;;
52838;SDS011;39219;53.678;9.856;2023-11-19T00:18:29;13.98;;;7.70;;
52838;SDS011;39219;53.678;9.856;2023-11-19T00:20:55;13.77;;;7.13;;
52838;SDS011;39219;53.678;9.856;2023-11-19T00:23:21;13.93;;;7.45;;
52838;SDS011;39219;53.678;9.856;2023-11-19T00:25:49;13.57;;;7.45;;
52838;SDS011;39219;53.678;9.856;2023-11-19T00:28:15;12.63;;;7.10;;
52838;SDS011;39219;53.678;9.856;2023-11-19T00:30:42;14.00;;;7.35;;
52838;SDS011;39219;53.678;9.856;2023-11-19T00:33:08;14.43;;;7.32;;
52838;SDS011;39219;53.678;9.856;2023-11-19T00:35:34;12.45;;;7.18;;
52838;SDS011;39219;53.678;9.856;2023-11-19T00:38:00;13.90;;;7.00;;
52838;SDS011;39219;53.678;9.856;2023-11-19T00:40:27;13.65;;;6.93;;
52838;SDS011;39219;53.678;9.856;2023-11-19T00:42:55;12.38;;;6.30;;
52838;SDS011;39219;53.678;9.856;2023-11-19T00:45:21;12.13;;;6.45;;
52838;SDS011;39219;53.678;9.856;2023-11-19T00:47:48;13.23;;;6.53;;
52838;SDS011;39219;53.678;9.856;2023-11-19T00:50:14;11.68;;;6.05;;
52838;SDS011;39219;53.678;9.856;2023-11-19T00:52:41;11.13;;;5.43;;
52838;SDS011;39219;53.678;9.856;2023-11-19T00:55:07;10.57;;;5.45;;
52838;SDS011;39219;53.678;9.856;2023-11-19T00:57:33;10.15;;;5.50;;
52838;SDS011;39219;53.678;9.856;2023-11-19T01:00:02;10.02;;;5.18;;
52838;SDS011;39219;53.678;9.856;2023-11-19T01:02:34;9.73;;;4.80;;
52838;SDS011;39219;53.678;9.856;2023-11-19T01:05:00;9.88;;;5.15;;
52838;SDS011;39219;53.678;9.856;2023-11-19T01:07:26;10.10;;;5.20;;
52838;SDS011;39219;53.678;9.856;2023-11-19T01:09:52;9.23;;;5.28;;
52838;SDS011;39219;53.678;9.856;2023-11-19T01:12:19;8.88;;;4.97;;
52838;SDS011;39219;53.678;9.856;2023-11-19T01:14:45;10.15;;;4.97;;
52838;SDS011;39219;53.678;9.856;2023-11-19T01:17:13;8.00;;;4.70;;
52838;SDS011;39219;53.678;9.856;2023-11-19T01:19:39;8.50;;;4.70;;
52838;SDS011;39219;53.678;9.856;2023-11-19T01:22:05;8.45;;;4.82;;
52838;SDS011;39219;53.678;9.856;2023-11-19T01:24:31;8.98;;;4.47;;
52838;SDS011;39219;53.678;9.856;2023-11-19T01:26:58;8.00;;;4.50;;
52838;SDS011;39219;53.678;9.856;2023-11-19T01:29:25;7.60;;;4.03;;
52838;SDS011;39219;53.678;9.856;2023-11-19T01:31:51;7.40;;;4.07;;
52838;SDS011;39219;53.678;9.856;2023-11-19T01:34:19;7.47;;;4.25;;
52838;SDS011;39219;53.678;9.856;2023-11-19T01:36:46;7.10;;;3.95;;
52838;SDS011;39219;53.678;9.856;2023-11-19T01:39:13;6.75;;;3.90;;
52838;SDS011;39219;53.678;9.856;2023-11-19T01:41:41;7.00;;;3.72;;
52838;SDS011;39219;53.678;9.856;2023-11-19T01:44:07;6.93;;;3.92;;
52838;SDS011;39219;53.678;9.856;2023-11-19T01:46:33;6.88;;;4.10;;
52838;SDS011;39219;53.678;9.856;2023-11-19T01:49:00;7.15;;;3.70;;
52838;SDS011;39219;53.678;9.856;2023-11-19T01:51:29;6.80;;;3.90;;
52838;SDS011;39219;53.678;9.856;2023-11-19T01:53:56;6.47;;;3.65;;
52838;SDS011;39219;53.678;9.856;2023-11-19T01:56:23;6.25;;;3.50;;
52838;SDS011;39219;53.678;9.856;2023-11-19T01:58:50;7.63;;;3.85;;
52838;SDS011;39219;53.678;9.856;2023-11-19T02:01:16;5.43;;;3.28;;
52838;SDS011;39219;53.678;9.856;2023-11-19T02:03:43;5.20;;;3.45;;
52838;SDS011;39219;53.678;9.856;2023-11-19T02:06:09;5.95;;;3.53;;
52838;SDS011;39219;53.678;9.856;2023-11-19T02:08:37;6.43;;;3.58;;
52838;SDS011;39219;53.678;9.856;2023-11-19T02:11:04;5.53;;;3.20;;
52838;SDS011;39219;53.678;9.856;2023-11-19T02:13:32;4.00;;;2.67;;
52838;SDS011;39219;53.678;9.856;2023-11-19T02:15:58;4.90;;;3.10;;
52838;SDS011;39219;53.678;9.856;2023-11-19T02:18:27;4.30;;;2.97;;
52838;SDS011;39219;53.678;9.856;2023-11-19T02:20:53;4.85;;;2.88;;
52838;SDS011;39219;53.678;9.856;2023-11-19T02:23:20;3.53;;;2.47;;
52838;SDS011;39219;53.678;9.856;2023-11-19T02:25:50;5.57;;;2.90;;
52838;SDS011;39219;53.678;9.856;2023-11-19T02:28:22;3.95;;;2.53;;
52838;SDS011;39219;53.678;9.856;2023-11-19T02:30:48;3.58;;;2.70;;
52838;SDS011;39219;53.678;9.856;2023-11-19T02:33:15;4.18;;;2.80;;
52838;SDS011;39219;53.678;9.856;2023-11-19T02:35:41;5.72;;;2.88;;
52838;SDS011;39219;53.678;9.856;2023-11-19T02:38:07;4.15;;;2.75;;
52838;SDS011;39219;53.678;9.856;2023-11-19T02:40:34;4.32;;;2.35;;
52838;SDS011;39219;53.678;9.856;2023-11-19T02:43:00;3.65;;;2.40;;
52838;SDS011;39219;53.678;9.856;2023-11-19T02:45:30;3.63;;;2.60;;
52838;SDS011;39219;53.678;9.856;2023-11-19T02:47:57;3.65;;;2.47;;
52838;SDS011;39219;53.678;9.856;2023-11-19T02:50:26;3.17;;;2.40;;
52838;SDS011;39219;53.678;9.856;2023-11-19T02:52:53;3.58;;;2.65;;
52838;SDS011;39219;53.678;9.856;2023-11-19T02:55:21;3.80;;;2.80;;
52838;SDS011;39219;53.678;9.856;2023-11-19T02:57:48;3.30;;;2.67;;
52838;SDS011;39219;53.678;9.856;2023-11-19T03:00:15;4.55;;;2.97;;
52838;SDS011;39219;53.678;9.856;2023-11-19T03:02:43;5.22;;;3.17;;
52838;SDS011;39219;53.678;9.856;2023-11-19T03:05:11;5.63;;;3.50;;
52838;SDS011;39219;53.678;9.856;2023-11-19T03:07:39;5.20;;;3.20;;
52838;SDS011;39219;53.678;9.856;2023-11-19T03:10:06;5.75;;;3.40;;
52838;SDS011;39219;53.678;9.856;2023-11-19T03:12:34;5.90;;;3.70;;
52838;SDS011;39219;53.678;9.856;2023-11-19T03:15:00;6.20;;;3.65;;
52838;SDS011;39219;53.678;9.856;2023-11-19T03:17:26;6.93;;;3.70;;
52838;SDS011;39219;53.678;9.856;2023-11-19T03:19:54;6.00;;;3.65;;
52838;SDS011;39219;53.678;9.856;2023-11-19T03:22:20;6.10;;;3.90;;
52838;SDS011;39219;53.678;9.856;2023-11-19T03:24:46;6.22;;;3.78;;
52838;SDS011;39219;53.678;9.856;2023-11-19T03:27:13;6.07;;;4.00;;
52838;SDS011;39219;53.678;9.856;2023-11-19T03:29:39;6.68;;;4.13;;
52838;SDS011;39219;53.678;9.856;2023-11-19T03:32:05;6.90;;;4.22;;
52838;SDS011;39219;53.678;9.856;2023-11-19T03:34:32;7.85;;;4.60;;
52838;SDS011;39219;53.678;9.856;2023-11-19T03:37:00;7.80;;;4.63;;
52838;SDS011;39219;53.678;9.856;2023-11-19T03:39:28;9.38;;;4.88;;
52838;SDS011;39219;53.678;9.856;2023-11-19T03:41:54;8.32;;;5.00;;
52838;SDS011;39219;53.678;9.856;2023-11-19T03:44:20;7.93;;;5.05;;
52838;SDS011;39219;53.678;9.856;2023-11-19T03:46:47;9.05;;;5.10;;
52838;SDS011;39219;53.678;9.856;2023-11-19T03:49:13;10.88;;;5.60;;
52838;SDS011;39219;53.678;9.856;2023-11-19T03:51:39;10.30;;;5.70;;
52838;SDS011;39219;53.678;9.856;2023-11-19T03:54:07;9.73;;;5.97;;
52838;SDS011;39219;53.678;9.856;2023-11-19T03:56:33;9.05;;;5.53;;
52838;SDS011;39219;53.678;9.856;2023-11-19T03:59:00;9.60;;;6.15;;
52838;SDS011;39219;53.678;9.856;2023-11-19T04:01:26;10.25;;;5.75;;
52838;SDS011;39219;53.678;9.856;2023-11-19T04:03:52;9.85;;;6.05;;
52838;SDS011;39219;53.678;9.856;2023-11-19T04:06:18;10.20;;;6.05;;
52838;SDS011;39219;53.678;9.856;2023-11-19T04:08:45;10.73;;;6.03;;
52838;SDS011;39219;53.678;9.856;2023-11-19T04:11:12;10.98;;;6.20;;
52838;SDS011;39219;53.678;9.856;2023-11-19T04:13:39;10.85;;;6.28;;
52838;SDS011;39219;53.678;9.856;2023-11-19T04:16:05;11.18;;;6.57;;
52838;SDS011;39219;53.678;9.856;2023-11-19T04:18:32;11.75;;;6.57;;
52838;SDS011;39219;53.678;9.856;2023-11-19T04:20:58;12.65;;;6.50;;
52838;SDS011;39219;53.678;9.856;2023-11-19T04:23:24;13.75;;;6.88;;
52838;SDS011;39219;53.678;9.856;2023-11-19T04:25:51;12.98;;;7.30;;
52838;SDS011;39219;53.678;9.856;2023-11-19T04:28:18;12.82;;;6.88;;
52838;SDS011;39219;53.678;9.856;2023-11-19T04:30:44;17.40;;;7.60;;
52838;SDS011;39219;53.678;9.856;2023-11-19T04:33:11;15.45;;;7.35;;
52838;SDS011;39219;53.678;9.856;2023-11-19T04:35:37;16.08;;;7.20;;
52838;SDS011;39219;53.678;9.856;2023-11-19T04:38:03;15.57;;;7.60;;
52838;SDS011;39219;53.678;9.856;2023-11-19T04:40:30;17.67;;;8.38;;
52838;SDS011;39219;53.678;9.856;2023-11-19T04:42:56;19.13;;;9.20;;
52838;SDS011;39219;53.678;9.856;2023-11-19T04:45:24;17.33;;;8.32;;
52838;SDS011;39219;53.678;9.856;2023-11-19T04:47:50;18.80;;;9.02;;
52838;SDS011;39219;53.678;9.856;2023-11-19T04:50:17;20.67;;;9.60;;
52838;SDS011;39219;53.678;9.856;2023-11-19T04:52:43;26.00;;;11.38;;
52838;SDS011;39219;53.678;9.856;2023-11-19T04:55:12;24.95;;;10.90;;
52838;SDS011;39219;53.678;9.856;2023-11-19T04:57:39;23.45;;;11.25;;
52838;SDS011;39219;53.678;9.856;2023-11-19T05:00:05;28.20;;;11.32;;
52838;SDS011;39219;53.678;9.856;2023-11-19T05:02:33;25.95;;;11.80;;
52838;SDS011;39219;53.678;9.856;2023-11-19T05:05:00;25.20;;;11.82;;
52838;SDS011;39219;53.678;9.856;2023-11-19T05:07:25;29.88;;;12.82;;
52838;SDS011;39219;53.678;9.856;2023-11-19T05:09:51;31.27;;;13.07;;
52838;SDS011;39219;53.678;9.856;2023-11-19T05:12:17;29.63;;;13.27;;
52838;SDS011;39219;53.678;9.856;2023-11-19T05:14:44;32.28;;;13.85;;
52838;SDS011;39219;53.678;9.856;2023-11-19T05:17:14;34.00;;;14.70;;
52838;SDS011;39219;53.678;9.856;2023-11-19T05:19:42;35.42;;;14.35;;
52838;SDS011;39219;53.678;9.856;2023-11-19T05:22:08;38.72;;;15.35;;
52838;SDS011;39219;53.678;9.856;2023-11-19T05:24:34;37.33;;;15.18;;
52838;SDS011;39219;53.678;9.856;2023-11-19T05:27:01;38.20;;;16.52;;
52838;SDS011;39219;53.678;9.856;2023-11-19T05:29:27;39.60;;;16.40;;
52838;SDS011;39219;53.678;9.856;2023-11-19T05:31:53;42.30;;;17.52;;
52838;SDS011;39219;53.678;9.856;2023-11-19T05:34:20;43.15;;;17.13;;
52838;SDS011;39219;53.678;9.856;2023-11-19T05:36:48;41.38;;;16.30;;
52838;SDS011;39219;53.678;9.856;2023-11-19T05:39:14;43.65;;;17.50;;
52838;SDS011;39219;53.678;9.856;2023-11-19T05:41:41;42.00;;;17.27;;
52838;SDS011;39219;53.678;9.856;2023-11-19T05:44:07;45.65;;;18.15;;
52838;SDS011;39219;53.678;9.856;2023-11-19T05:46:33;47.55;;;17.75;;
52838;SDS011;39219;53.678;9.856;2023-11-19T05:49:05;44.38;;;17.35;;
52838;SDS011;39219;53.678;9.856;2023-11-19T05:51:31;49.80;;;18.38;;
52838;SDS011;39219;53.678;9.856;2023-11-19T05:53:59;52.63;;;17.67;;
52838;SDS011;39219;53.678;9.856;2023-11-19T05:56:25;46.97;;;18.00;;
52838;SDS011;39219;53.678;9.856;2023-11-19T05:58:57;45.65;;;18.15;;
52838;SDS011;39219;53.678;9.856;2023-11-19T06:01:25;44.15;;;17.23;;
52838;SDS011;39219;53.678;9.856;2023-11-19T06:03:51;48.22;;;17.05;;
52838;SDS011;39219;53.678;9.856;2023-11-19T06:06:18;48.05;;;17.85;;
52838;SDS011;39219;53.678;9.856;2023-11-19T06:08:44;46.78;;;16.83;;
52838;SDS011;39219;53.678;9.856;2023-11-19T06:11:12;46.67;;;16.65;;
52838;SDS011;39219;53.678;9.856;2023-11-19T06:13:43;45.40;;;16.63;;
52838;SDS011;39219;53.678;9.856;2023-11-19T06:16:09;45.50;;;16.92;;
52838;SDS011;39219;53.678;9.856;2023-11-19T06:18:36;43.05;;;15.68;;
52838;SDS011;39219;53.678;9.856;2023-11-19T06:21:02;46.92;;;15.93;;
52838;SDS011;39219;53.678;9.856;2023-11-19T06:23:28;45.20;;;15.57;;
52838;SDS011;39219;53.678;9.856;2023-11-19T06:25:55;46.08;;;14.73;;
52838;SDS011;39219;53.678;9.856;2023-11-19T06:28:22;39.83;;;14.77;;
52838;SDS011;39219;53.678;9.856;2023-11-19T06:30:49;41.92;;;13.57;;
52838;SDS011;39219;53.678;9.856;2023-11-19T06:33:15;39.25;;;13.68;;
52838;SDS011;39219;53.678;9.856;2023-11-19T06:35:42;46.53;;;13.38;;
52838;SDS011;39219;53.678;9.856;2023-11-19T06:38:08;39.22;;;12.32;;
52838;SDS011;39219;53.678;9.856;2023-11-19T06:40:34;36.42;;;11.80;;
52838;SDS011;39219;53.678;9.856;2023-11-19T06:43:01;41.33;;;11.32;;
52838;SDS011;39219;53.678;9.856;2023-11-19T06:45:30;32.53;;;10.85;;
52838;SDS011;39219;53.678;9.856;2023-11-19T06:47:56;42.83;;;11.60;;
52838;SDS011;39219;53.678;9.856;2023-11-19T06:50:23;33.28;;;10.38;;
52838;SDS011;39219;53.678;9.856;2023-11-19T06:52:49;34.90;;;10.00;;
52838;SDS011;39219;53.678;9.856;2023-11-19T06:55:16;30.30;;;9.88;;
52838;SDS011;39219;53.678;9.856;2023-11-19T06:57:42;34.97;;;10.05;;
52838;SDS011;39219;53.678;9.856;2023-11-19T07:00:09;31.33;;;8.38;;
52838;SDS011;39219;53.678;9.856;2023-11-19T07:02:37;35.90;;;9.40;;
52838;SDS011;39219;53.678;9.856;2023-11-19T07:05:04;29.45;;;8.15;;
52838;SDS011;39219;53.678;9.856;2023-11-19T07:07:30;29.05;;;8.50;;
52838;SDS011;39219;53.678;9.856;2023-11-19T07:09:57;24.90;;;7.70;;
52838;SDS011;39219;53.678;9.856;2023-11-19T07:12:23;23.08;;;7.15;;
52838;SDS011;39219;53.678;9.856;2023-11-19T07:14:51;25.77;;;7.45;;
52838;SDS011;39219;53.678;9.856;2023-11-19T07:17:18;34.53;;;6.90;;
52838;SDS011;39219;53.678;9.856;2023-11-19T07:19:46;37.95;;;7.80;;
52838;SDS011;39219;53.678;9.856;2023-11-19T07:22:13;29.63;;;7.18;;
52838;SDS011;39219;53.678;9.856;2023-11-19T07:24:40;26.70;;;5.85;;
52838;SDS011;39219;53.678;9.856;2023-11-19T07:27:07;26.77;;;5.97;;
52838;SDS011;39219;53.678;9.856;2023-11-19T07:29:33;19.58;;;5.25;;
52838;SDS011;39219;53.678;9.856;2023-11-19T07:32:00;27.70;;;5.80;;
52838;SDS011;39219;53.678;9.856;2023-11-19T07:34:27;22.58;;;5.80;;
52838;SDS011;39219;53.678;9.856;2023-11-19T07:36:55;29.75;;;6.22;;
52838;SDS011;39219;53.678;9.856;2023-11-19T07:39:24;25.60;;;6.00;;
52838;SDS011;39219;53.678;9.856;2023-11-19T07:41:50;29.95;;;5.65;;
52838;SDS011;39219;53.678;9.856;2023-11-19T07:44:17;28.95;;;5.80;;
52838;SDS011;39219;53.678;9.856;2023-11-19T07:46:43;28.85;;;5.45;;
52838;SDS011;39219;53.678;9.856;2023-11-19T07:49:10;26.50;;;5.68;;
52838;SDS011;39219;53.678;9.856;2023-11-19T07:51:36;25.45;;;6.35;;
52838;SDS011;39219;53.678;9.856;2023-11-19T07:54:04;26.48;;;5.30;;
52838;SDS011;39219;53.678;9.856;2023-11-19T07:56:31;28.20;;;5.10;;
52838;SDS011;39219;53.678;9.856;2023-11-19T07:58:57;31.63;;;5.38;;
52838;SDS011;39219;53.678;9.856;2023-11-19T08:01:23;31.90;;;5.68;;
52838;SDS011;39219;53.678;9.856;2023-11-19T08:03:50;25.23;;;4.97;;
52838;SDS011;39219;53.678;9.856;2023-11-19T08:06:16;26.38;;;4.82;;
52838;SDS011;39219;53.678;9.856;2023-11-19T08:08:42;25.08;;;4.82;;
52838;SDS011;39219;53.678;9.856;2023-11-19T08:11:11;22.25;;;4.82;;
52838;SDS011;39219;53.678;9.856;2023-11-19T08:13:37;26.27;;;5.32;;
52838;SDS011;39219;53.678;9.856;2023-11-19T08:16:03;26.02;;;4.88;;
52838;SDS011;39219;53.678;9.856;2023-11-19T08:18:30;28.40;;;4.97;;
52838;SDS011;39219;53.678;9.856;2023-11-19T08:20:57;24.83;;;5.15;;
52838;SDS011;39219;53.678;9.856;2023-11-19T08:23:25;30.05;;;5.78;;
52838;SDS011;39219;53.678;9.856;2023-11-19T08:25:53;29.70;;;5.25;;
52838;SDS011;39219;53.678;9.856;2023-11-19T08:28:22;24.38;;;5.07;;
52838;SDS011;39219;53.678;9.856;2023-11-19T08:30:48;23.65;;;4.82;;
52838;SDS011;39219;53.678;9.856;2023-11-19T08:33:15;24.63;;;4.88;;
52838;SDS011;39219;53.678;9.856;2023-11-19T08:35:42;24.35;;;4.85;;
52838;SDS011;39219;53.678;9.856;2023-11-19T08:38:08;26.20;;;5.25;;
52838;SDS011;39219;53.678;9.856;2023-11-19T08:40:34;26.73;;;5.15;;
52838;SDS011;39219;53.678;9.856;2023-11-19T08:43:00;24.23;;;5.03;;
52838;SDS011;39219;53.678;9.856;2023-11-19T08:45:28;21.98;;;4.53;;
52838;SDS011;39219;53.678;9.856;2023-11-19T08:47:54;29.58;;;5.00;;
52838;SDS011;39219;53.678;9.856;2023-11-19T08:50:21;28.17;;;5.05;;
52838;SDS011;39219;53.678;9.856;2023-11-19T08:52:47;22.90;;;5.07;;
52838;SDS011;39219;53.678;9.856;2023-11-19T08:55:14;28.55;;;5.05;;
52838;SDS011;39219;53.678;9.856;2023-11-19T08:57:40;30.20;;;4.97;;
52838;SDS011;39219;53.678;9.856;2023-11-19T09:00:07;29.38;;;5.18;;
52838;SDS011;39219;53.678;9.856;2023-11-19T09:02:35;22.25;;;4.68;;
52838;SDS011;39219;53.678;9.856;2023-11-19T09:05:02;26.23;;;5.00;;
52838;SDS011;39219;53.678;9.856;2023-11-19T09:07:28;29.95;;;5.32;;
52838;SDS011;39219;53.678;9.856;2023-11-19T09:09:54;31.92;;;5.53;;
52838;SDS011;39219;53.678;9.856;2023-11-19T09:12:20;23.30;;;4.43;;
52838;SDS011;39219;53.678;9.856;2023-11-19T09:14:47;27.27;;;4.78;;
52838;SDS011;39219;53.678;9.856;2023-11-19T09:17:14;27.73;;;5.10;;
52838;SDS011;39219;53.678;9.856;2023-11-19T09:19:42;35.15;;;5.82;;
52838;SDS011;39219;53.678;9.856;2023-11-19T09:22:08;30.73;;;5.03;;
52838;SDS011;39219;53.678;9.856;2023-11-19T09:24:34;27.45;;;5.35;;
52838;SDS011;39219;53.678;9.856;2023-11-19T09:27:00;30.63;;;5.20;;
52838;SDS011;39219;53.678;9.856;2023-11-19T09:29:27;26.88;;;5.18;;
52838;SDS011;39219;53.678;9.856;2023-11-19T09:31:53;36.15;;;5.97;;
52838;SDS011;39219;53.678;9.856;2023-11-19T09:34:19;24.15;;;4.90;;
52838;SDS011;39219;53.678;9.856;2023-11-19T09:36:47;37.35;;;5.65;;
52838;SDS011;39219;53.678;9.856;2023-11-19T09:39:13;31.92;;;5.10;;
52838;SDS011;39219;53.678;9.856;2023-11-19T09:41:42;30.80;;;6.18;;
52838;SDS011;39219;53.678;9.856;2023-11-19T09:44:10;28.25;;;5.13;;
52838;SDS011;39219;53.678;9.856;2023-11-19T09:46:37;37.75;;;5.95;;
52838;SDS011;39219;53.678;9.856;2023-11-19T09:49:04;33.35;;;5.45;;
52838;SDS011;39219;53.678;9.856;2023-11-19T09:51:32;30.35;;;5.30;;
52838;SDS011;39219;53.678;9.856;2023-11-19T09:54:00;34.53;;;6.00;;
52838;SDS011;39219;53.678;9.856;2023-11-19T09:56:26;30.77;;;5.35;;
52838;SDS011;39219;53.678;9.856;2023-11-19T09:58:54;32.05;;;6.00;;
52838;SDS011;39219;53.678;9.856;2023-11-19T10:01:20;29.38;;;5.40;;
52838;SDS011;39219;53.678;9.856;2023-11-19T10:03:47;26.10;;;4.85;;
52838;SDS011;39219;53.678;9.856;2023-11-19T10:06:15;25.58;;;5.03;;
52838;SDS011;39219;53.678;9.856;2023-11-19T10:08:43;27.83;;;5.22;;
52838;SDS011;39219;53.678;9.856;2023-11-19T10:11:11;32.47;;;5.72;;
52838;SDS011;39219;53.678;9.856;2023-11-19T10:13:38;28.10;;;5.43;;
52838;SDS011;39219;53.678;9.856;2023-11-19T10:16:07;30.08;;;5.35;;
52838;SDS011;39219;53.678;9.856;2023-11-19T10:18:34;24.42;;;4.53;;
52838;SDS011;39219;53.678;9.856;2023-11-19T10:21:03;28.10;;;4.72;;
52838;SDS011;39219;53.678;9.856;2023-11-19T10:23:29;31.05;;;5.20;;
52838;SDS011;39219;53.678;9.856;2023-11-19T10:25:56;26.60;;;5.40;;
52838;SDS011;39219;53.678;9.856;2023-11-19T10:28:29;21.92;;;5.22;;
52838;SDS011;39219;53.678;9.856;2023-11-19T10:31:01;26.00;;;4.72;;
52838;SDS011;39219;53.678;9.856;2023-11-19T10:33:30;29.90;;;5.05;;
52838;SDS011;39219;53.678;9.856;2023-11-19T10:35:57;25.27;;;4.65;;
52838;SDS011;39219;53.678;9.856;2023-11-19T10:38:24;24.77;;;5.03;;
52838;SDS011;39219;53.678;9.856;2023-11-19T10:40:51;22.40;;;4.57;;
52838;SDS011;39219;53.678;9.856;2023-11-19T10:43:18;25.73;;;5.00;;
52838;SDS011;39219;53.678;9.856;2023-11-19T10:45:45;27.75;;;4.88;;
52838;SDS011;39219;53.678;9.856;2023-11-19T10:48:12;27.83;;;5.47;;
52838;SDS011;39219;53.678;9.856;2023-11-19T10:50:39;26.67;;;4.40;;
52838;SDS011;39219;53.678;9.856;2023-11-19T10:53:06;26.70;;;4.93;;
52838;SDS011;39219;53.678;9.856;2023-11-19T10:55:33;27.23;;;4.90;;
52838;SDS011;39219;53.678;9.856;2023-11-19T10:58:00;28.65;;;4.88;;
52838;SDS011;39219;53.678;9.856;2023-11-19T11:00:28;30.05;;;5.05;;
52838;SDS011;39219;53.678;9.856;2023-11-19T11:03:00;31.83;;;4.47;;
52838;SDS011;39219;53.678;9.856;2023-11-19T11:05:26;28.13;;;5.07;;
52838;SDS011;39219;53.678;9.856;2023-11-19T11:07:54;25.98;;;4.78;;
52838;SDS011;39219;53.678;9.856;2023-11-19T11:10:21;27.23;;;4.60;;
52838;SDS011;39219;53.678;9.856;2023-11-19T11:12:51;28.45;;;4.63;;
52838;SDS011;39219;53.678;9.856;2023-11-19T11:15:22;26.95;;;4.53;;
52838;SDS011;39219;53.678;9.856;2023-11-19T11:17:50;26.48;;;5.35;;
52838;SDS011;39219;53.678;9.856;2023-11-19T11:20:22;28.75;;;5.45;;
52838;SDS011;39219;53.678;9.856;2023-11-19T11:22:50;26.30;;;4.75;;
52838;SDS011;39219;53.678;9.856;2023-11-19T11:25:23;23.45;;;4.68;;
52838;SDS011;39219;53.678;9.856;2023-11-19T11:27:57;26.23;;;5.28;;
52838;SDS011;39219;53.678;9.856;2023-11-19T11:30:29;29.42;;;5.28;;
52838;SDS011;39219;53.678;9.856;2023-11-19T11:33:02;28.90;;;5.38;;
52838;SDS011;39219;53.678;9.856;2023-11-19T11:35:34;27.83;;;5.68;;
52838;SDS011;39219;53.678;9.856;2023-11-19T11:38:06;30.33;;;5.07;;
52838;SDS011;39219;53.678;9.856;2023-11-19T11:40:33;29.38;;;5.50;;
52838;SDS011;39219;53.678;9.856;2023-11-19T11:43:01;26.90;;;5.80;;
52838;SDS011;39219;53.678;9.856;2023-11-19T11:45:36;29.73;;;5.55;;
52838;SDS011;39219;53.678;9.856;2023-11-19T11:48:06;23.17;;;4.78;;
52838;SDS011;39219;53.678;9.856;2023-11-19T11:50:35;27.10;;;4.85;;
52838;SDS011;39219;53.678;9.856;2023-11-19T11:53:15;26.98;;;5.00;;
52838;SDS011;39219;53.678;9.856;2023-11-19T11:55:51;26.73;;;5.32;;
52838;SDS011;39219;53.678;9.856;2023-11-19T11:58:19;26.90;;;5.05;;
52838;SDS011;39219;53.678;9.856;2023-11-19T12:00:46;26.75;;;5.22;;
52838;SDS011;39219;53.678;9.856;2023-11-19T12:03:13;31.10;;;5.30;;
52838;SDS011;39219;53.678;9.856;2023-11-19T12:05:42;23.40;;;4.85;;
52838;SDS011;39219;53.678;9.856;2023-11-19T12:08:10;28.55;;;5.32;;
52838;SDS011;39219;53.678;9.856;2023-11-19T12:10:37;32.50;;;5.80;;
52838;SDS011;39219;53.678;9.856;2023-11-19T12:13:04;31.13;;;5.40;;
52838;SDS011;39219;53.678;9.856;2023-11-19T12:15:32;28.45;;;5.32;;
52838;SDS011;39219;53.678;9.856;2023-11-19T12:17:58;32.83;;;5.93;;
52838;SDS011;39219;53.678;9.856;2023-11-19T12:20:25;31.58;;;5.57;;
52838;SDS011;39219;53.678;9.856;2023-11-19T12:22:53;31.63;;;5.10;;
52838;SDS011;39219;53.678;9.856;2023-11-19T12:25:20;31.02;;;5.13;;
52838;SDS011;39219;53.678;9.856;2023-11-19T12:27:47;27.85;;;4.85;;
52838;SDS011;39219;53.678;9.856;2023-11-19T12:30:16;27.50;;;4.75;;
52838;SDS011;39219;53.678;9.856;2023-11-19T12:32:43;28.38;;;4.88;;
52838;SDS011;39219;53.678;9.856;2023-11-19T12:35:10;27.73;;;5.28;;
52838;SDS011;39219;53.678;9.856;2023-11-19T12:37:41;29.52;;;4.95;;
52838;SDS011;39219;53.678;9.856;2023-11-19T12:40:12;31.20;;;5.63;;
52838;SDS011;39219;53.678;9.856;2023-11-19T12:42:39;21.20;;;4.63;;
52838;SDS011;39219;53.678;9.856;2023-11-19T12:45:06;28.40;;;5.45;;
52838;SDS011;39219;53.678;9.856;2023-11-19T12:47:34;23.83;;;4.47;;
52838;SDS011;39219;53.678;9.856;2023-11-19T12:50:00;26.73;;;5.47;;
52838;SDS011;39219;53.678;9.856;2023-11-19T12:52:27;32.55;;;5.40;;
52838;SDS011;39219;53.678;9.856;2023-11-19T12:54:53;26.27;;;4.80;;
52838;SDS011;39219;53.678;9.856;2023-11-19T12:57:21;23.70;;;4.70;;
52838;SDS011;39219;53.678;9.856;2023-11-19T12:59:56;27.77;;;4.93;;
52838;SDS011;39219;53.678;9.856;2023-11-19T13:02:23;27.50;;;4.80;;
52838;SDS011;39219;53.678;9.856;2023-11-19T13:04:49;32.05;;;4.57;;
52838;SDS011;39219;53.678;9.856;2023-11-19T13:07:20;25.58;;;4.75;;
52838;SDS011;39219;53.678;9.856;2023-11-19T13:09:46;31.38;;;4.70;;
52838;SDS011;39219;53.678;9.856;2023-11-19T13:12:13;29.58;;;5.05;;
52838;SDS011;39219;53.678;9.856;2023-11-19T13:14:41;29.00;;;5.45;;
52838;SDS011;39219;53.678;9.856;2023-11-19T13:17:12;22.58;;;4.65;;
52838;SDS011;39219;53.678;9.856;2023-11-19T13:19:38;32.38;;;5.43;;
52838;SDS011;39219;53.678;9.856;2023-11-19T13:22:05;26.50;;;5.40;;
52838;SDS011;39219;53.678;9.856;2023-11-19T13:24:31;33.60;;;5.20;;
52838;SDS011;39219;53.678;9.856;2023-11-19T13:26:57;32.85;;;5.28;;
52838;SDS011;39219;53.678;9.856;2023-11-19T13:29:23;30.27;;;5.20;;
52838;SDS011;39219;53.678;9.856;2023-11-19T13:31:51;21.77;;;4.93;;
52838;SDS011;39219;53.678;9.856;2023-11-19T13:34:17;28.02;;;4.97;;
52838;SDS011;39219;53.678;9.856;2023-11-19T13:36:44;26.65;;;4.93;;
52838;SDS011;39219;53.678;9.856;2023-11-19T13:39:10;25.60;;;4.85;;
52838;SDS011;39219;53.678;9.856;2023-11-19T13:41:37;26.55;;;4.47;;
52838;SDS011;39219;53.678;9.856;2023-11-19T13:44:03;28.33;;;5.07;;
52838;SDS011;39219;53.678;9.856;2023-11-19T13:46:30;20.15;;;4.30;;
52838;SDS011;39219;53.678;9.856;2023-11-19T13:48:57;25.02;;;5.30;;
52838;SDS011;39219;53.678;9.856;2023-11-19T13:51:24;27.45;;;4.65;;
52838;SDS011;39219;53.678;9.856;2023-11-19T13:53:50;26.38;;;4.95;;
52838;SDS011;39219;53.678;9.856;2023-11-19T13:56:16;27.63;;;5.00;;
52838;SDS011;39219;53.678;9.856;2023-11-19T13:58:43;30.48;;;5.50;;
52838;SDS011;39219;53.678;9.856;2023-11-19T14:01:09;27.27;;;4.38;;
52838;SDS011;39219;53.678;9.856;2023-11-19T14:03:37;24.33;;;5.43;;
52838;SDS011;39219;53.678;9.856;2023-11-19T14:06:05;28.45;;;5.10;;
52838;SDS011;39219;53.678;9.856;2023-11-19T14:08:33;25.05;;;4.82;;
52838;SDS011;39219;53.678;9.856;2023-11-19T14:10:59;29.83;;;5.20;;
52838;SDS011;39219;53.678;9.856;2023-11-19T14:13:26;31.30;;;5.82;;
52838;SDS011;39219;53.678;9.856;2023-11-19T14:15:52;26.48;;;4.97;;
52838;SDS011;39219;53.678;9.856;2023-11-19T14:18:19;27.25;;;5.10;;
52838;SDS011;39219;53.678;9.856;2023-11-19T14:20:45;27.52;;;4.88;;
52838;SDS011;39219;53.678;9.856;2023-11-19T14:23:13;26.48;;;5.35;;
52838;SDS011;39219;53.678;9.856;2023-11-19T14:25:39;18.30;;;3.67;;
52838;SDS011;39219;53.678;9.856;2023-11-19T14:28:06;15.98;;;3.50;;
52838;SDS011;39219;53.678;9.856;2023-11-19T14:30:32;19.35;;;3.60;;
52838;SDS011;39219;53.678;9.856;2023-11-19T14:32:59;12.57;;;2.60;;
52838;SDS011;39219;53.678;9.856;2023-11-19T14:35:25;10.73;;;2.10;;